Time,TemperatureF,DewpointF,PressureIn,WindDirection,WindDirectionDegrees,WindSpeedMPH,WindSpeedGustMPH,Humidity,HourlyPrecipIn,Conditions,Clouds,dailyrainin,SoftwareType,DateUTC
2013-01-12 00:02:00,58.1,22.5,25.28,SSW,202,12.3,12.8,25,0.00,,---,0.00,VWS V14.01,2013-01-12 06:02:00,
2013-01-12 00:07:00,58.3,22.6,25.28,SSW,202,12.3,12.8,25,0.00,,---,0.00,VWS V14.01,2013-01-12 06:07:00,
2013-01-12 00:12:00,58.3,22.6,25.28,SSW,202,12.8,12.8,25,0.00,,---,0.00,VWS V14.01,2013-01-12 06:12:00,
2013-01-12 00:17:00,58.5,22.8,25.28,South,180,10.1,10.1,25,0.00,,---,0.00,VWS V14.01,2013-01-12 06:17:00,
2013-01-12 00:22:00,58.1,22.5,25.28,SSW,202,8.5,11.0,25,0.00,,---,0.00,VWS V14.01,2013-01-12 06:22:00,
2013-01-12 00:27:00,57.9,22.3,25.28,South,180,9.8,13.6,25,0.00,,---,0.00,VWS V14.01,2013-01-12 06:27:00,
2013-01-12 00:32:00,57.9,22.3,25.28,South,180,10.1,11.0,25,0.00,,---,0.00,VWS V14.01,2013-01-12 06:32:00,
2013-01-12 00:37:00,57.9,22.3,25.28,South,180,7.8,8.5,25,0.00,,---,0.00,VWS V14.01,2013-01-12 06:37:00,
2013-01-12 00:42:00,57.9,22.3,25.28,SSW,202,8.5,12.3,25,0.00,,---,0.00,VWS V14.01,2013-01-12 06:42:00,
2013-01-12 00:47:00,58.1,22.5,25.28,SSW,202,16.1,16.1,25,0.00,,---,0.00,VWS V14.01,2013-01-12 06:47:00,
2013-01-12 00:52:00,58.3,22.6,25.28,SSW,202,13.0,13.0,25,0.00,,---,0.00,VWS V14.01,2013-01-12 06:52:00,
2013-01-12 00:57:00,58.5,22.8,25.28,SSW,202,8.7,9.8,25,0.04,,---,0.04,VWS V14.01,2013-01-12 06:57:00,
2013-01-12 01:02:00,58.3,22.6,25.28,SSW,202,12.5,17.9,25,0.04,,---,0.04,VWS V14.01,2013-01-12 07:02:00,
2013-01-12 01:07:00,57.9,22.3,25.28,SSW,202,12.5,13.0,25,0.04,,---,0.04,VWS V14.01,2013-01-12 07:07:00,
2013-01-12 01:12:00,57.7,22.2,25.28,SSW,202,12.1,12.1,25,0.04,,---,0.04,VWS V14.01,2013-01-12 07:12:00,
2013-01-12 01:17:00,57.2,21.7,25.28,South,180,8.1,11.0,25,0.04,,---,0.04,VWS V14.01,2013-01-12 07:17:00,
2013-01-12 01:22:00,57.2,21.7,25.28,SSW,202,8.1,14.5,25,0.04,,---,0.04,VWS V14.01,2013-01-12 07:22:00,
2013-01-12 01:27:00,57.2,21.7,25.28,SSW,202,14.8,14.8,25,0.04,,---,0.04,VWS V14.01,2013-01-12 07:27:00,
2013-01-12 01:32:00,57.0,21.6,25.28,SSE,158,12.5,12.5,25,0.04,,---,0.04,VWS V14.01,2013-01-12 07:32:00,
2013-01-12 01:37:00,57.4,21.9,25.28,South,180,15.4,15.4,25,0.04,,---,0.04,VWS V14.01,2013-01-12 07:37:00,
2013-01-12 01:42:00,57.2,21.7,25.28,SSW,202,9.8,9.8,25,0.04,,---,0.04,VWS V14.01,2013-01-12 07:42:00,
2013-01-12 01:47:00,57.2,21.7,25.28,SSW,202,10.3,12.1,25,0.04,,---,0.04,VWS V14.01,2013-01-12 07:47:00,
2013-01-12 01:52:00,57.0,21.6,25.28,SSW,202,8.7,12.8,25,0.04,,---,0.04,VWS V14.01,2013-01-12 07:52:00,
2013-01-12 01:57:00,57.2,21.7,25.28,SW,225,13.2,13.2,25,0.04,,---,0.04,VWS V14.01,2013-01-12 07:57:00,
2013-01-12 02:02:00,57.2,21.7,25.28,ESE,112,12.8,12.8,25,0.00,,---,0.04,VWS V14.01,2013-01-12 08:02:00,
2013-01-12 02:07:00,57.2,21.7,25.28,SSW,202,11.9,13.4,25,0.00,,---,0.04,VWS V14.01,2013-01-12 08:07:00,
2013-01-12 02:12:00,56.8,21.4,25.28,SSW,202,9.2,16.8,25,0.00,,---,0.04,VWS V14.01,2013-01-12 08:12:00,
2013-01-12 02:17:00,56.5,21.1,25.28,SSW,202,11.0,12.3,25,0.00,,---,0.04,VWS V14.01,2013-01-12 08:17:00,
2013-01-12 02:22:00,56.5,21.1,25.28,SW,225,15.2,15.2,25,0.00,,---,0.04,VWS V14.01,2013-01-12 08:22:00,
2013-01-12 02:27:00,56.1,20.8,25.28,SSW,202,7.8,8.5,25,0.00,,---,0.04,VWS V14.01,2013-01-12 08:27:00,
2013-01-12 02:32:00,55.8,20.5,25.28,SW,225,14.8,14.8,25,0.00,,---,0.04,VWS V14.01,2013-01-12 08:32:00,
2013-01-12 02:37:00,55.8,20.5,25.28,SSW,202,10.5,11.0,25,0.00,,---,0.04,VWS V14.01,2013-01-12 08:37:00,
2013-01-12 02:42:00,55.6,20.3,25.28,SW,225,10.3,10.3,25,0.00,,---,0.04,VWS V14.01,2013-01-12 08:42:00,
2013-01-12 02:47:00,55.6,20.3,25.28,SW,225,9.8,10.5,25,0.00,,---,0.04,VWS V14.01,2013-01-12 08:47:00,
2013-01-12 02:52:00,55.9,20.6,25.28,SW,225,9.8,9.8,25,0.00,,---,0.04,VWS V14.01,2013-01-12 08:52:00,
2013-01-12 02:57:00,55.6,20.3,25.28,SW,225,8.1,8.1,25,0.00,,---,0.04,VWS V14.01,2013-01-12 08:57:00,
2013-01-12 03:02:00,55.4,20.2,25.28,SW,225,8.7,9.2,25,0.00,,---,0.04,VWS V14.01,2013-01-12 09:02:00,
2013-01-12 03:07:00,54.5,20.3,25.25,West,270,4.0,4.3,26,0.00,,---,0.04,VWS V14.01,2013-01-12 09:07:00,
2013-01-12 03:12:00,53.2,20.1,25.25,SW,225,3.6,4.3,27,0.00,,---,0.04,VWS V14.01,2013-01-12 09:12:00,
2013-01-12 03:17:00,52.9,19.8,25.25,West,270,5.6,5.6,27,0.00,,---,0.04,VWS V14.01,2013-01-12 09:17:00,
2013-01-12 03:22:00,52.2,19.2,25.25,NW,315,2.5,2.5,27,0.00,,---,0.04,VWS V14.01,2013-01-12 09:22:00,
2013-01-12 03:27:00,49.3,18.4,25.25,NNW,338,3.6,3.6,29,0.00,,---,0.04,VWS V14.01,2013-01-12 09:27:00,
2013-01-12 03:32:00,47.3,20.4,25.25,NW,315,4.9,4.9,34,0.00,,---,0.04,VWS V14.01,2013-01-12 09:32:00,
2013-01-12 03:37:00,46.2,22.0,25.25,WNW,292,4.3,4.3,38,0.00,,---,0.04,VWS V14.01,2013-01-12 09:37:00,
2013-01-12 03:42:00,44.1,21.3,25.25,SSW,202,2.0,3.8,40,0.00,,---,0.04,VWS V14.01,2013-01-12 09:42:00,
2013-01-12 03:47:00,43.3,21.2,25.25,WSW,248,2.7,2.7,41,0.00,,---,0.04,VWS V14.01,2013-01-12 09:47:00,
2013-01-12 03:52:00,42.8,20.8,25.25,WSW,248,4.9,5.4,41,0.00,,---,0.04,VWS V14.01,2013-01-12 09:52:00,
2013-01-12 03:57:00,42.4,21.0,25.25,WSW,248,4.9,5.4,42,0.00,,---,0.04,VWS V14.01,2013-01-12 09:57:00,
2013-01-12 04:02:00,42.1,20.7,25.25,WSW,248,3.8,3.8,42,0.00,,---,0.04,VWS V14.01,2013-01-12 10:02:00,
2013-01-12 04:07:00,41.9,21.0,25.28,West,270,5.6,5.6,43,0.00,,---,0.04,VWS V14.01,2013-01-12 10:07:00,
2013-01-12 04:12:00,41.5,20.7,25.28,WNW,292,2.7,3.1,43,0.00,,---,0.04,VWS V14.01,2013-01-12 10:12:00,
2013-01-12 04:17:00,41.4,20.6,25.28,SSW,202,3.4,3.4,43,0.00,,---,0.04,VWS V14.01,2013-01-12 10:17:00,
2013-01-12 04:22:00,41.2,22.5,25.25,SSW,202,3.8,3.8,47,0.00,,---,0.04,VWS V14.01,2013-01-12 10:22:00,
2013-01-12 04:27:00,40.3,23.6,25.25,SW,225,4.9,5.6,51,0.00,,---,0.04,VWS V14.01,2013-01-12 10:27:00,
2013-01-12 04:32:00,40.1,23.0,25.25,SW,225,3.6,3.6,50,0.00,,---,0.04,VWS V14.01,2013-01-12 10:32:00,
2013-01-12 04:37:00,39.9,22.3,25.28,SSW,202,0.0,0.0,49,0.00,,---,0.04,VWS V14.01,2013-01-12 10:37:00,
2013-01-12 04:42:00,39.6,22.0,25.28,SSW,202,0.9,1.6,49,0.00,,---,0.04,VWS V14.01,2013-01-12 10:42:00,
2013-01-12 04:47:00,39.2,22.6,25.28,SSE,158,4.3,4.3,51,0.00,,---,0.04,VWS V14.01,2013-01-12 10:47:00,
2013-01-12 04:52:00,39.2,22.6,25.25,SSE,158,5.4,5.4,51,0.00,,---,0.04,VWS V14.01,2013-01-12 10:52:00,
2013-01-12 04:57:00,38.7,23.0,25.25,SSW,202,2.9,2.9,53,0.00,,---,0.04,VWS V14.01,2013-01-12 10:57:00,
2013-01-12 05:02:00,38.7,22.6,25.25,ESE,112,0.9,2.9,52,0.00,,---,0.04,VWS V14.01,2013-01-12 11:02:00,
2013-01-12 05:07:00,38.8,21.8,25.25,South,180,0.0,0.0,50,0.00,,---,0.04,VWS V14.01,2013-01-12 11:07:00,
2013-01-12 05:12:00,38.7,21.6,25.25,SW,225,3.4,3.4,50,0.00,,---,0.04,VWS V14.01,2013-01-12 11:12:00,
2013-01-12 05:17:00,38.5,21.9,25.25,SW,225,1.1,2.2,51,0.00,,---,0.04,VWS V14.01,2013-01-12 11:17:00,
2013-01-12 05:22:00,38.5,21.5,25.25,SW,225,0.0,0.0,50,0.00,,---,0.04,VWS V14.01,2013-01-12 11:22:00,
2013-01-12 05:27:00,38.3,20.8,25.25,NNE,22,2.7,2.7,49,0.00,,---,0.04,VWS V14.01,2013-01-12 11:27:00,
2013-01-12 05:32:00,37.9,21.0,25.25,NNE,22,0.0,0.0,50,0.00,,---,0.04,VWS V14.01,2013-01-12 11:32:00,
2013-01-12 05:37:00,37.6,20.6,25.25,ENE,68,0.0,0.0,50,0.00,,---,0.04,VWS V14.01,2013-01-12 11:37:00,
2013-01-12 05:42:00,37.4,20.5,25.25,NNW,338,0.0,0.0,50,0.00,,---,0.04,VWS V14.01,2013-01-12 11:42:00,
2013-01-12 05:47:00,37.6,20.6,25.25,WSW,248,0.0,0.0,50,0.00,,---,0.04,VWS V14.01,2013-01-12 11:47:00,
2013-01-12 05:52:00,37.8,21.3,25.28,ENE,68,3.4,4.0,51,0.00,,---,0.04,VWS V14.01,2013-01-12 11:52:00,
2013-01-12 05:57:00,38.3,21.3,25.28,SSE,158,0.0,0.0,50,0.00,,---,0.04,VWS V14.01,2013-01-12 11:57:00,
2013-01-12 06:02:00,38.1,21.1,25.28,ENE,68,2.7,3.1,50,0.00,,---,0.04,VWS V14.01,2013-01-12 12:02:00,
2013-01-12 06:07:00,38.5,21.0,25.25,SE,135,0.0,0.0,49,0.00,,---,0.04,VWS V14.01,2013-01-12 12:07:00,
2013-01-12 06:12:00,38.5,20.5,25.25,ENE,68,2.5,2.5,48,0.00,,---,0.04,VWS V14.01,2013-01-12 12:12:00,
2013-01-12 06:17:00,38.8,20.8,25.25,SSE,158,2.5,2.5,48,0.00,,---,0.04,VWS V14.01,2013-01-12 12:17:00,
2013-01-12 06:22:00,38.5,21.0,25.28,SE,135,2.9,2.9,49,0.00,,---,0.04,VWS V14.01,2013-01-12 12:22:00,
2013-01-12 06:27:00,38.5,21.0,25.28,SSE,158,2.0,2.9,49,0.00,,---,0.04,VWS V14.01,2013-01-12 12:27:00,
2013-01-12 06:32:00,38.5,21.0,25.28,South,180,2.0,2.0,49,0.00,,---,0.04,VWS V14.01,2013-01-12 12:32:00,
2013-01-12 06:37:00,38.5,20.5,25.28,South,180,1.6,2.0,48,0.00,,---,0.04,VWS V14.01,2013-01-12 12:37:00,
2013-01-12 06:42:00,38.3,19.4,25.28,ENE,68,0.0,0.0,46,0.00,,---,0.04,VWS V14.01,2013-01-12 12:42:00,
2013-01-12 06:47:00,38.5,19.5,25.28,SE,135,0.0,0.0,46,0.00,,---,0.04,VWS V14.01,2013-01-12 12:47:00,
2013-01-12 06:52:00,38.1,19.2,25.25,SSW,202,1.1,1.1,46,0.00,,---,0.04,VWS V14.01,2013-01-12 12:52:00,
2013-01-12 06:57:00,38.3,19.9,25.25,SSW,202,1.6,1.6,47,0.00,,---,0.04,VWS V14.01,2013-01-12 12:57:00,
2013-01-12 07:02:00,38.1,19.7,25.25,ESE,112,2.7,2.7,47,0.00,,---,0.04,VWS V14.01,2013-01-12 13:02:00,
2013-01-12 07:07:00,37.8,20.8,25.25,ESE,112,3.1,3.1,50,0.00,,---,0.04,VWS V14.01,2013-01-12 13:07:00,
2013-01-12 07:12:00,37.4,20.5,25.25,East,90,4.7,5.6,50,0.00,,---,0.04,VWS V14.01,2013-01-12 13:12:00,
2013-01-12 07:17:00,37.0,21.5,25.25,ESE,112,3.4,3.4,53,0.00,,---,0.04,VWS V14.01,2013-01-12 13:17:00,
2013-01-12 07:22:00,36.7,21.2,25.28,ENE,68,4.5,5.4,53,0.00,,---,0.04,VWS V14.01,2013-01-12 13:22:00,
2013-01-12 07:27:00,36.7,20.3,25.28,ENE,68,10.1,10.7,51,0.00,,---,0.04,VWS V14.01,2013-01-12 13:27:00,
2013-01-12 07:32:00,36.3,21.3,25.28,NE,45,10.1,10.1,54,0.00,,---,0.04,VWS V14.01,2013-01-12 13:32:00,
2013-01-12 07:37:00,35.8,21.6,25.28,ENE,68,8.1,13.4,56,0.00,,---,0.04,VWS V14.01,2013-01-12 13:37:00,
2013-01-12 07:42:00,35.6,21.9,25.28,ENE,68,6.9,8.1,57,0.00,,---,0.04,VWS V14.01,2013-01-12 13:42:00,
2013-01-12 07:47:00,35.4,21.7,25.28,ENE,68,5.6,7.8,57,0.00,,---,0.04,VWS V14.01,2013-01-12 13:47:00,
2013-01-12 07:52:00,35.1,21.4,25.28,East,90,4.0,6.5,57,0.00,,---,0.04,VWS V14.01,2013-01-12 13:52:00,
2013-01-12 07:57:00,34.9,21.6,25.28,ESE,112,4.7,4.7,58,0.00,,---,0.04,VWS V14.01,2013-01-12 13:57:00,
2013-01-12 08:02:00,34.7,21.0,25.28,ESE,112,5.8,6.7,57,0.00,,---,0.04,VWS V14.01,2013-01-12 14:02:00,
2013-01-12 08:07:00,34.9,21.2,25.28,East,90,7.6,7.6,57,0.00,,---,0.04,VWS V14.01,2013-01-12 14:07:00,
2013-01-12 08:12:00,34.9,20.4,25.28,East,90,5.8,7.6,55,0.00,,---,0.04,VWS V14.01,2013-01-12 14:12:00,
2013-01-12 08:17:00,34.7,19.3,25.28,ENE,68,8.5,8.5,53,0.00,,---,0.04,VWS V14.01,2013-01-12 14:17:00,
2013-01-12 08:22:00,34.7,19.3,25.28,ENE,68,4.7,8.1,53,0.00,,---,0.04,VWS V14.01,2013-01-12 14:22:00,
2013-01-12 08:27:00,34.7,18.9,25.28,ENE,68,5.4,5.4,52,0.00,,---,0.04,VWS V14.01,2013-01-12 14:27:00,
2013-01-12 08:32:00,35.1,18.3,25.28,NE,45,6.3,6.3,50,0.00,,---,0.04,VWS V14.01,2013-01-12 14:32:00,
2013-01-12 08:37:00,35.2,18.5,25.28,ENE,68,6.0,6.3,50,0.00,,---,0.04,VWS V14.01,2013-01-12 14:37:00,
2013-01-12 08:42:00,35.4,18.2,25.28,NE,45,3.4,4.0,49,0.00,,---,0.04,VWS V14.01,2013-01-12 14:42:00,
2013-01-12 08:47:00,35.6,18.3,25.28,NE,45,5.8,5.8,49,0.00,,---,0.04,VWS V14.01,2013-01-12 14:47:00,
2013-01-12 08:52:00,37.0,17.7,25.28,NNE,22,4.9,5.8,45,0.00,,---,0.04,VWS V14.01,2013-01-12 14:52:00,
2013-01-12 08:57:00,38.7,18.6,25.28,NNE,22,5.4,5.4,44,0.00,,---,0.04,VWS V14.01,2013-01-12 14:57:00,
2013-01-12 09:02:00,38.8,17.7,25.28,NE,45,4.9,4.9,42,0.00,,---,0.04,VWS V14.01,2013-01-12 15:02:00,
2013-01-12 09:07:00,37.6,16.0,25.31,NNE,22,5.6,5.6,41,0.00,,---,0.04,VWS V14.01,2013-01-12 15:07:00,
2013-01-12 09:12:00,37.2,16.3,25.31,NNE,22,4.0,4.7,42,0.00,,---,0.04,VWS V14.01,2013-01-12 15:12:00,
2013-01-12 09:17:00,37.0,15.5,25.31,NNE,22,4.3,6.3,41,0.00,,---,0.04,VWS V14.01,2013-01-12 15:17:00,
2013-01-12 09:22:00,37.0,15.5,25.31,NNE,22,5.8,8.7,41,0.00,,---,0.04,VWS V14.01,2013-01-12 15:22:00,
2013-01-12 09:27:00,37.0,15.5,25.31,NNE,22,5.8,8.5,41,0.00,,---,0.04,VWS V14.01,2013-01-12 15:27:00,
2013-01-12 09:32:00,36.7,14.6,25.31,NNE,22,6.5,6.5,40,0.00,,---,0.04,VWS V14.01,2013-01-12 15:32:00,
2013-01-12 09:37:00,36.9,15.4,25.31,NNE,22,6.5,6.5,41,0.00,,---,0.04,VWS V14.01,2013-01-12 15:37:00,
2013-01-12 09:42:00,36.5,15.1,25.31,NE,45,7.6,7.6,41,0.00,,---,0.04,VWS V14.01,2013-01-12 15:42:00,
2013-01-12 09:47:00,36.5,15.1,25.31,NE,45,6.5,8.7,41,0.00,,---,0.04,VWS V14.01,2013-01-12 15:47:00,
2013-01-12 09:52:00,36.7,15.2,25.31,NE,45,5.4,6.5,41,0.00,,---,0.04,VWS V14.01,2013-01-12 15:52:00,
2013-01-12 09:57:00,37.4,15.9,25.31,NNE,22,7.6,7.6,41,0.00,,---,0.04,VWS V14.01,2013-01-12 15:57:00,
2013-01-12 10:02:00,37.4,15.3,25.31,NNE,22,10.1,10.1,40,0.00,,---,0.04,VWS V14.01,2013-01-12 16:02:00,
2013-01-12 10:07:00,38.3,16.1,25.31,North,0,7.6,7.8,40,0.00,,---,0.04,VWS V14.01,2013-01-12 16:07:00,
2013-01-12 10:12:00,39.9,17.6,25.31,NE,45,8.5,8.7,40,0.00,,---,0.04,VWS V14.01,2013-01-12 16:12:00,
2013-01-12 10:17:00,40.6,17.6,25.31,NNE,22,7.6,7.6,39,0.00,,---,0.04,VWS V14.01,2013-01-12 16:17:00,
2013-01-12 10:22:00,40.8,17.2,25.31,NNE,22,9.0,10.5,38,0.00,,---,0.04,VWS V14.01,2013-01-12 16:22:00,
2013-01-12 10:27:00,41.4,16.4,25.31,NE,45,8.5,8.5,36,0.00,,---,0.04,VWS V14.01,2013-01-12 16:27:00,
2013-01-12 10:32:00,41.7,15.4,25.31,NNW,338,9.4,11.0,34,0.00,,---,0.04,VWS V14.01,2013-01-12 16:32:00,
2013-01-12 10:37:00,42.3,15.9,25.31,NNE,22,10.5,10.7,34,0.00,,---,0.04,VWS V14.01,2013-01-12 16:37:00,
2013-01-12 10:42:00,42.8,15.7,25.31,North,0,10.5,11.9,33,0.00,,---,0.04,VWS V14.01,2013-01-12 16:42:00,
2013-01-12 10:47:00,43.0,15.9,25.31,NNE,22,7.4,8.5,33,0.00,,---,0.04,VWS V14.01,2013-01-12 16:47:00,
2013-01-12 10:52:00,43.3,15.5,25.28,North,0,6.0,8.5,32,0.00,,---,0.04,VWS V14.01,2013-01-12 16:52:00,
2013-01-12 10:57:00,44.6,16.6,25.28,NNE,22,4.7,4.7,32,0.00,,---,0.04,VWS V14.01,2013-01-12 16:57:00,
2013-01-12 11:02:00,44.8,16.7,25.28,NNE,22,3.8,7.4,32,0.00,,---,0.04,VWS V14.01,2013-01-12 17:02:00,
2013-01-12 11:07:00,45.0,16.2,25.31,NNW,338,5.8,6.3,31,0.00,,---,0.04,VWS V14.01,2013-01-12 17:07:00,
2013-01-12 11:12:00,45.5,16.6,25.31,NNE,22,2.9,4.0,31,0.00,,---,0.04,VWS V14.01,2013-01-12 17:12:00,
2013-01-12 11:17:00,46.2,16.5,25.31,NNW,338,6.5,7.6,30,0.00,,---,0.04,VWS V14.01,2013-01-12 17:17:00,
2013-01-12 11:22:00,46.8,17.0,25.31,NE,45,6.0,8.1,30,0.00,,---,0.04,VWS V14.01,2013-01-12 17:22:00,
2013-01-12 11:27:00,47.7,17.8,25.31,NNW,338,2.9,4.0,30,0.00,,---,0.04,VWS V14.01,2013-01-12 17:27:00,
2013-01-12 11:32:00,47.8,17.9,25.31,ENE,68,3.4,4.3,30,0.00,,---,0.04,VWS V14.01,2013-01-12 17:32:00,
2013-01-12 11:37:00,49.1,18.2,25.31,North,0,5.6,5.6,29,0.00,,---,0.04,VWS V14.01,2013-01-12 17:37:00,
2013-01-12 11:42:00,48.6,17.8,25.31,NE,45,6.5,7.4,29,0.00,,---,0.04,VWS V14.01,2013-01-12 17:42:00,
2013-01-12 11:47:00,48.9,18.1,25.31,NE,45,4.0,5.8,29,0.00,,---,0.04,VWS V14.01,2013-01-12 17:47:00,
2013-01-12 11:52:00,50.2,18.4,25.31,NNW,338,5.6,5.6,28,0.00,,---,0.04,VWS V14.01,2013-01-12 17:52:00,
2013-01-12 11:57:00,48.6,17.0,25.31,NE,45,4.0,6.3,28,0.00,,---,0.04,VWS V14.01,2013-01-12 17:57:00,
2013-01-12 12:02:00,49.5,17.7,25.31,SSE,158,2.5,3.6,28,0.00,,---,0.04,VWS V14.01,2013-01-12 18:02:00,
2013-01-12 12:07:00,49.3,17.6,25.31,North,0,4.3,6.0,28,0.00,,---,0.04,VWS V14.01,2013-01-12 18:07:00,
2013-01-12 12:12:00,52.3,20.2,25.31,SSW,202,0.0,0.0,28,0.00,,---,0.04,VWS V14.01,2013-01-12 18:12:00,
2013-01-12 12:17:00,52.5,20.4,25.31,ENE,68,4.0,4.0,28,0.00,,---,0.04,VWS V14.01,2013-01-12 18:17:00,
2013-01-12 12:22:00,52.9,20.7,25.31,East,90,2.0,2.0,28,0.00,,---,0.04,VWS V14.01,2013-01-12 18:22:00,
2013-01-12 12:27:00,52.3,19.4,25.31,NW,315,3.8,4.0,27,0.00,,---,0.04,VWS V14.01,2013-01-12 18:27:00,
2013-01-12 12:32:00,52.7,19.7,25.31,ENE,68,3.8,4.3,27,0.00,,---,0.04,VWS V14.01,2013-01-12 18:32:00,
2013-01-12 12:37:00,51.3,19.3,25.31,North,0,3.6,4.0,28,0.00,,---,0.04,VWS V14.01,2013-01-12 18:37:00,
2013-01-12 12:42:00,52.2,19.2,25.31,NE,45,3.8,3.8,27,0.00,,---,0.04,VWS V14.01,2013-01-12 18:42:00,
2013-01-12 12:47:00,52.2,20.1,25.31,NNE,22,3.4,3.4,28,0.00,,---,0.04,VWS V14.01,2013-01-12 18:47:00,
2013-01-12 12:52:00,52.3,20.2,25.28,North,0,5.4,5.4,28,0.00,,---,0.04,VWS V14.01,2013-01-12 18:52:00,
2013-01-12 12:57:00,53.1,20.8,25.28,North,0,2.9,4.0,28,0.00,,---,0.04,VWS V14.01,2013-01-12 18:57:00,
2013-01-12 13:02:00,54.0,20.8,25.28,NNW,338,6.5,6.5,27,0.00,,---,0.04,VWS V14.01,2013-01-12 19:02:00,
2013-01-12 13:07:00,52.0,19.1,25.25,North,0,5.6,7.6,27,0.00,,---,0.04,VWS V14.01,2013-01-12 19:07:00,
2013-01-12 13:12:00,53.2,20.1,25.25,North,0,10.5,10.5,27,0.00,,---,0.04,VWS V14.01,2013-01-12 19:12:00,
2013-01-12 13:17:00,51.1,18.3,25.25,ENE,68,10.1,10.1,27,0.00,,---,0.04,VWS V14.01,2013-01-12 19:17:00,
2013-01-12 13:22:00,50.7,18.0,25.25,NNE,22,9.4,10.1,27,0.00,,---,0.04,VWS V14.01,2013-01-12 19:22:00,
2013-01-12 13:27:00,51.1,19.1,25.25,NNE,22,7.6,7.6,28,0.00,,---,0.04,VWS V14.01,2013-01-12 19:27:00,
2013-01-12 13:32:00,50.7,18.0,25.25,ENE,68,7.8,9.8,27,0.00,,---,0.04,VWS V14.01,2013-01-12 19:32:00,
2013-01-12 13:37:00,49.6,17.9,25.22,NNE,22,9.8,12.5,28,0.00,,---,0.04,VWS V14.01,2013-01-12 19:37:00,
2013-01-12 13:42:00,49.3,17.6,25.22,NNE,22,10.3,12.8,28,0.00,,---,0.04,VWS V14.01,2013-01-12 19:42:00,
2013-01-12 13:47:00,49.5,17.7,25.22,NE,45,10.3,14.8,28,0.00,,---,0.04,VWS V14.01,2013-01-12 19:47:00,
2013-01-12 13:52:00,50.2,18.4,25.25,NNE,22,6.7,8.7,28,0.00,,---,0.04,VWS V14.01,2013-01-12 19:52:00,
2013-01-12 13:57:00,50.2,17.5,25.25,ENE,68,10.7,10.7,27,0.00,,---,0.04,VWS V14.01,2013-01-12 19:57:00,
2013-01-12 14:02:00,49.6,17.9,25.25,ENE,68,8.7,11.0,28,0.00,,---,0.04,VWS V14.01,2013-01-12 20:02:00,
2013-01-12 14:07:00,49.6,17.9,25.22,NE,45,13.2,13.4,28,0.00,,---,0.04,VWS V14.01,2013-01-12 20:07:00,
2013-01-12 14:12:00,49.5,17.7,25.22,NNE,22,8.5,8.5,28,0.00,,---,0.04,VWS V14.01,2013-01-12 20:12:00,
2013-01-12 14:17:00,50.4,17.7,25.22,NE,45,7.8,9.8,27,0.00,,---,0.04,VWS V14.01,2013-01-12 20:17:00,
2013-01-12 14:22:00,49.8,18.0,25.25,NNE,22,13.4,13.4,28,0.00,,---,0.04,VWS V14.01,2013-01-12 20:22:00,
2013-01-12 14:27:00,50.4,17.7,25.25,NE,45,12.5,13.0,27,0.00,,---,0.04,VWS V14.01,2013-01-12 20:27:00,
2013-01-12 14:32:00,50.0,17.4,25.25,NNE,22,7.8,10.5,27,0.00,,---,0.04,VWS V14.01,2013-01-12 20:32:00,
2013-01-12 14:37:00,50.4,17.7,25.25,NNE,22,6.5,10.7,27,0.00,,---,0.04,VWS V14.01,2013-01-12 20:37:00,
2013-01-12 14:42:00,49.6,17.0,25.25,NNE,22,13.0,19.9,27,0.00,,---,0.04,VWS V14.01,2013-01-12 20:42:00,
2013-01-12 14:47:00,49.5,17.7,25.25,NE,45,12.8,15.2,28,0.00,,---,0.04,VWS V14.01,2013-01-12 20:47:00,
2013-01-12 14:52:00,49.5,16.9,25.25,NNE,22,7.8,10.1,27,0.00,,---,0.04,VWS V14.01,2013-01-12 20:52:00,
2013-01-12 14:57:00,49.5,16.9,25.25,NE,45,10.5,13.2,27,0.00,,---,0.04,VWS V14.01,2013-01-12 20:57:00,
2013-01-12 15:02:00,49.6,17.0,25.25,ENE,68,7.6,7.6,27,0.00,,---,0.04,VWS V14.01,2013-01-12 21:02:00,
2013-01-12 15:07:00,50.2,17.5,25.28,NNE,22,10.7,10.7,27,0.00,,---,0.04,VWS V14.01,2013-01-12 21:07:00,
2013-01-12 15:12:00,50.0,17.4,25.28,NNE,22,6.0,8.7,27,0.00,,---,0.04,VWS V14.01,2013-01-12 21:12:00,
2013-01-12 15:17:00,50.5,17.8,25.28,NE,45,11.4,11.4,27,0.00,,---,0.04,VWS V14.01,2013-01-12 21:17:00,
2013-01-12 15:22:00,50.2,17.5,25.25,NE,45,9.8,13.2,27,0.00,,---,0.04,VWS V14.01,2013-01-12 21:22:00,
2013-01-12 15:27:00,49.1,16.6,25.25,NNE,22,10.3,15.4,27,0.00,,---,0.04,VWS V14.01,2013-01-12 21:27:00,
2013-01-12 15:32:00,48.7,16.3,25.25,NE,45,8.5,10.1,27,0.00,,---,0.04,VWS V14.01,2013-01-12 21:32:00,
2013-01-12 15:37:00,48.6,16.1,25.25,NE,45,9.4,10.3,27,0.00,,---,0.04,VWS V14.01,2013-01-12 21:37:00,
2013-01-12 15:42:00,48.0,15.6,25.25,NNE,22,10.3,16.1,27,0.00,,---,0.04,VWS V14.01,2013-01-12 21:42:00,
2013-01-12 15:47:00,47.7,15.3,25.25,NE,45,12.3,12.3,27,0.00,,---,0.04,VWS V14.01,2013-01-12 21:47:00,
2013-01-12 15:52:00,47.5,15.2,25.25,NNE,22,14.3,14.5,27,0.00,,---,0.04,VWS V14.01,2013-01-12 21:52:00,
2013-01-12 15:57:00,48.0,15.6,25.25,North,0,8.1,10.5,27,0.00,,---,0.04,VWS V14.01,2013-01-12 21:57:00,
2013-01-12 16:02:00,48.2,15.8,25.25,North,0,7.8,8.5,27,0.00,,---,0.04,VWS V14.01,2013-01-12 22:02:00,
2013-01-12 16:07:00,47.8,15.5,25.25,NNE,22,11.0,11.0,27,0.00,,---,0.04,VWS V14.01,2013-01-12 22:07:00,
2013-01-12 16:12:00,47.7,15.3,25.25,NE,45,10.1,10.5,27,0.00,,---,0.04,VWS V14.01,2013-01-12 22:12:00,
2013-01-12 16:17:00,47.3,15.0,25.25,ENE,68,8.5,8.5,27,0.00,,---,0.04,VWS V14.01,2013-01-12 22:17:00,
2013-01-12 16:22:00,46.9,14.7,25.25,NE,45,10.7,12.8,27,0.00,,---,0.04,VWS V14.01,2013-01-12 22:22:00,
2013-01-12 16:27:00,46.9,14.7,25.25,NNE,22,10.1,13.0,27,0.00,,---,0.04,VWS V14.01,2013-01-12 22:27:00,
2013-01-12 16:32:00,46.8,14.6,25.25,NE,45,9.8,10.1,27,0.00,,---,0.04,VWS V14.01,2013-01-12 22:32:00,
2013-01-12 16:37:00,46.9,14.7,25.25,NNE,22,10.3,11.9,27,0.00,,---,0.04,VWS V14.01,2013-01-12 22:37:00,
2013-01-12 16:42:00,47.1,14.9,25.25,NE,45,10.5,10.5,27,0.00,,---,0.04,VWS V14.01,2013-01-12 22:42:00,
2013-01-12 16:47:00,46.8,14.6,25.25,NE,45,7.4,8.7,27,0.00,,---,0.04,VWS V14.01,2013-01-12 22:47:00,
2013-01-12 16:52:00,47.1,14.9,25.25,NE,45,8.5,10.7,27,0.00,,---,0.04,VWS V14.01,2013-01-12 22:52:00,
2013-01-12 16:57:00,47.5,15.2,25.25,NE,45,8.5,9.8,27,0.00,,---,0.04,VWS V14.01,2013-01-12 22:57:00,
2013-01-12 17:02:00,46.8,14.6,25.25,ENE,68,9.8,10.3,27,0.00,,---,0.04,VWS V14.01,2013-01-12 23:02:00,
2013-01-12 17:08:00,46.6,14.4,25.25,ENE,68,10.7,10.7,27,0.00,,---,0.04,VWS V14.01,2013-01-12 23:08:00,
2013-01-12 17:13:00,46.4,14.2,25.25,NE,45,8.1,9.6,27,0.00,,---,0.04,VWS V14.01,2013-01-12 23:13:00,
2013-01-12 17:18:00,46.2,14.9,25.25,NE,45,10.1,10.1,28,0.00,,---,0.04,VWS V14.01,2013-01-12 23:18:00,
2013-01-12 17:23:00,46.2,14.9,25.25,NNE,22,5.8,8.7,28,0.00,,---,0.04,VWS V14.01,2013-01-12 23:23:00,
2013-01-12 17:28:00,45.9,14.6,25.25,North,0,8.1,8.1,28,0.00,,---,0.04,VWS V14.01,2013-01-12 23:28:00,
2013-01-12 17:33:00,45.3,14.1,25.25,NE,45,7.4,10.7,28,0.00,,---,0.04,VWS V14.01,2013-01-12 23:33:00,
2013-01-12 17:38:00,45.0,13.8,25.25,NNE,22,7.6,7.6,28,0.00,,---,0.04,VWS V14.01,2013-01-12 23:38:00,
2013-01-12 17:43:00,45.1,14.0,25.25,NE,45,7.8,7.8,28,0.00,,---,0.04,VWS V14.01,2013-01-12 23:43:00,
2013-01-12 17:48:00,44.4,14.2,25.25,NNE,22,8.1,9.8,29,0.00,,---,0.04,VWS V14.01,2013-01-12 23:48:00,
2013-01-12 17:53:00,43.5,13.4,25.25,North,0,6.0,8.5,29,0.00,,---,0.04,VWS V14.01,2013-01-12 23:53:00,
2013-01-12 17:58:00,42.8,12.8,25.25,NNE,22,10.7,10.7,29,0.00,,---,0.04,VWS V14.01,2013-01-12 23:58:00,
2013-01-12 18:03:00,41.4,11.5,25.25,NNE,22,7.6,8.7,29,0.00,,---,0.04,VWS V14.01,2013-01-13 00:03:00,
2013-01-12 18:08:00,40.1,10.4,25.25,NNE,22,8.1,10.5,29,0.00,,---,0.04,VWS V14.01,2013-01-13 00:08:00,
2013-01-12 18:13:00,39.4,10.5,25.25,NNE,22,6.0,7.4,30,0.00,,---,0.04,VWS V14.01,2013-01-13 00:13:00,
2013-01-12 18:18:00,38.7,9.9,25.25,NNE,22,5.6,5.6,30,0.00,,---,0.04,VWS V14.01,2013-01-13 00:18:00,
2013-01-12 18:23:00,37.9,10.0,25.25,NNE,22,4.9,5.8,31,0.00,,---,0.04,VWS V14.01,2013-01-13 00:23:00,
2013-01-12 18:28:00,37.6,9.7,25.25,NNE,22,6.5,6.5,31,0.00,,---,0.04,VWS V14.01,2013-01-13 00:28:00,
2013-01-12 18:33:00,37.2,9.4,25.25,NE,45,5.4,6.0,31,0.00,,---,0.04,VWS V14.01,2013-01-13 00:33:00,
2013-01-12 18:38:00,36.9,9.8,25.25,NNE,22,5.4,5.4,32,0.00,,---,0.04,VWS V14.01,2013-01-13 00:38:00,
2013-01-12 18:43:00,36.5,9.5,25.25,NNE,22,5.8,5.8,32,0.00,,---,0.04,VWS V14.01,2013-01-13 00:43:00,
2013-01-12 18:48:00,36.1,9.1,25.25,North,0,4.3,4.9,32,0.00,,---,0.04,VWS V14.01,2013-01-13 00:48:00,
2013-01-12 18:53:00,35.8,9.5,25.25,NE,45,4.3,5.4,33,0.00,,---,0.04,VWS V14.01,2013-01-13 00:53:00,
2013-01-12 18:58:00,35.6,9.4,25.25,NE,45,4.0,4.3,33,0.00,,---,0.04,VWS V14.01,2013-01-13 00:58:00,
2013-01-12 19:03:00,35.4,9.9,25.25,ENE,68,2.9,5.8,34,0.00,,---,0.04,VWS V14.01,2013-01-13 01:03:00,
2013-01-12 19:08:00,35.2,9.7,25.28,NNE,22,4.9,4.9,34,0.00,,---,0.04,VWS V14.01,2013-01-13 01:08:00,
2013-01-12 19:13:00,35.1,9.5,25.28,North,0,4.3,5.6,34,0.00,,---,0.04,VWS V14.01,2013-01-13 01:13:00,
2013-01-12 19:18:00,34.7,9.9,25.28,NNE,22,4.9,4.9,35,0.00,,---,0.04,VWS V14.01,2013-01-13 01:18:00,
2013-01-12 19:23:00,34.5,9.7,25.31,NNE,22,3.4,4.5,35,0.00,,---,0.04,VWS V14.01,2013-01-13 01:23:00,
2013-01-12 19:28:00,34.5,9.7,25.31,NE,45,2.7,3.4,35,0.00,,---,0.04,VWS V14.01,2013-01-13 01:28:00,
2013-01-12 19:33:00,34.3,9.5,25.31,NNE,22,3.1,3.4,35,0.00,,---,0.04,VWS V14.01,2013-01-13 01:33:00,
2013-01-12 19:38:00,33.8,9.1,25.31,NE,45,2.5,2.9,35,0.00,,---,0.04,VWS V14.01,2013-01-13 01:38:00,
2013-01-12 19:43:00,34.0,9.2,25.31,NNE,22,4.3,5.4,35,0.00,,---,0.04,VWS V14.01,2013-01-13 01:43:00,
2013-01-12 19:48:00,34.0,9.9,25.31,NNE,22,4.3,4.3,36,0.00,,---,0.04,VWS V14.01,2013-01-13 01:48:00,
2013-01-12 19:53:00,33.8,10.3,25.31,North,0,2.5,2.5,37,0.00,,---,0.04,VWS V14.01,2013-01-13 01:53:00,
2013-01-12 19:58:00,33.4,10.0,25.31,NNE,22,3.6,3.6,37,0.00,,---,0.04,VWS V14.01,2013-01-13 01:58:00,
2013-01-12 20:03:00,33.6,11.3,25.31,North,0,3.1,3.8,39,0.00,,---,0.04,VWS V14.01,2013-01-13 02:03:00,
2013-01-12 20:08:00,33.3,10.4,25.31,NNE,22,3.8,4.3,38,0.00,,---,0.04,VWS V14.01,2013-01-13 02:08:00,
2013-01-12 20:13:00,33.1,11.4,25.31,North,0,2.7,2.9,40,0.00,,---,0.04,VWS V14.01,2013-01-13 02:13:00,
2013-01-12 20:18:00,32.5,10.4,25.31,NNW,338,0.0,0.0,39,0.00,,---,0.04,VWS V14.01,2013-01-13 02:18:00,
2013-01-12 20:23:00,32.2,9.4,25.31,NNE,22,2.7,2.9,38,0.00,,---,0.04,VWS V14.01,2013-01-13 02:23:00,
2013-01-12 20:28:00,32.0,9.3,25.31,North,0,0.0,0.0,38,0.00,,---,0.04,VWS V14.01,2013-01-13 02:28:00,
2013-01-12 20:33:00,31.8,9.1,25.31,East,90,0.0,0.0,38,0.00,,---,0.04,VWS V14.01,2013-01-13 02:33:00,
2013-01-12 20:38:00,32.0,10.4,25.34,SW,225,1.1,1.6,40,0.00,,---,0.04,VWS V14.01,2013-01-13 02:38:00,
2013-01-12 20:43:00,31.8,10.3,25.34,SSE,158,2.0,2.0,40,0.00,,---,0.04,VWS V14.01,2013-01-13 02:43:00,
2013-01-12 20:48:00,31.8,10.3,25.34,SSE,158,0.0,0.0,40,0.00,,---,0.04,VWS V14.01,2013-01-13 02:48:00,
2013-01-12 20:53:00,31.8,9.7,25.34,SSE,158,1.6,1.6,39,0.00,,---,0.04,VWS V14.01,2013-01-13 02:53:00,
2013-01-12 20:58:00,32.4,10.8,25.34,SSW,202,2.5,2.5,40,0.00,,---,0.04,VWS V14.01,2013-01-13 02:58:00,
2013-01-12 21:03:00,32.2,10.6,25.34,SSW,202,1.6,2.2,40,0.00,,---,0.04,VWS V14.01,2013-01-13 03:03:00,
2013-01-12 21:08:00,32.0,11.5,25.34,SSW,202,2.2,2.7,42,0.00,,---,0.04,VWS V14.01,2013-01-13 03:08:00,
2013-01-12 21:13:00,31.5,11.6,25.34,South,180,3.4,3.4,43,0.00,,---,0.04,VWS V14.01,2013-01-13 03:13:00,
2013-01-12 21:18:00,31.8,11.9,25.34,South,180,2.0,2.5,43,0.00,,---,0.04,VWS V14.01,2013-01-13 03:18:00,
2013-01-12 21:23:00,31.1,10.7,25.37,SSW,202,1.1,1.6,42,0.00,,---,0.04,VWS V14.01,2013-01-13 03:23:00,
2013-01-12 21:28:00,32.0,11.5,25.37,SSW,202,1.1,2.0,42,0.00,,---,0.04,VWS V14.01,2013-01-13 03:28:00,
2013-01-12 21:33:00,31.8,11.4,25.37,SSW,202,1.3,1.3,42,0.00,,---,0.04,VWS V14.01,2013-01-13 03:33:00,
2013-01-12 21:38:00,31.6,10.6,25.34,SSW,202,1.6,2.0,41,0.00,,---,0.04,VWS V14.01,2013-01-13 03:38:00,
2013-01-12 21:43:00,31.5,10.5,25.34,SSW,202,0.0,1.1,41,0.00,,---,0.04,VWS V14.01,2013-01-13 03:43:00,
2013-01-12 21:48:00,31.1,10.7,25.34,WSW,248,2.2,2.9,42,0.00,,---,0.04,VWS V14.01,2013-01-13 03:48:00,
2013-01-12 21:53:00,31.5,11.0,25.37,SW,225,1.3,2.0,42,0.00,,---,0.04,VWS V14.01,2013-01-13 03:53:00,
2013-01-12 21:58:00,31.6,11.2,25.37,SSW,202,1.6,2.7,42,0.00,,---,0.04,VWS V14.01,2013-01-13 03:58:00,
2013-01-12 22:03:00,31.1,10.7,25.37,SSE,158,2.9,2.9,42,0.00,,---,0.04,VWS V14.01,2013-01-13 04:03:00,
2013-01-12 22:08:00,32.0,11.5,25.37,SSE,158,2.0,2.5,42,0.00,,---,0.04,VWS V14.01,2013-01-13 04:08:00,
2013-01-12 22:13:00,31.6,11.2,25.37,South,180,1.6,2.0,42,0.00,,---,0.04,VWS V14.01,2013-01-13 04:13:00,
2013-01-12 22:18:00,31.1,11.2,25.37,SSW,202,1.3,2.7,43,0.00,,---,0.04,VWS V14.01,2013-01-13 04:18:00,
2013-01-12 22:23:00,31.1,11.2,25.34,SSW,202,1.6,1.6,43,0.00,,---,0.04,VWS V14.01,2013-01-13 04:23:00,
2013-01-12 22:28:00,30.7,10.9,25.34,SSW,202,2.2,2.2,43,0.00,,---,0.04,VWS V14.01,2013-01-13 04:28:00,
2013-01-12 22:33:00,30.9,11.1,25.34,SSW,202,1.3,1.6,43,0.00,,---,0.04,VWS V14.01,2013-01-13 04:33:00,
2013-01-12 22:38:00,30.9,11.1,25.37,SSW,202,1.6,2.0,43,0.00,,---,0.04,VWS V14.01,2013-01-13 04:38:00,
2013-01-12 22:43:00,30.7,10.9,25.37,South,180,1.6,1.6,43,0.00,,---,0.04,VWS V14.01,2013-01-13 04:43:00,
2013-01-12 22:48:00,30.6,10.7,25.37,South,180,2.0,2.2,43,0.00,,---,0.04,VWS V14.01,2013-01-13 04:48:00,
2013-01-12 22:53:00,30.6,10.7,25.37,SSW,202,2.2,2.7,43,0.00,,---,0.04,VWS V14.01,2013-01-13 04:53:00,
2013-01-12 22:58:00,30.7,10.9,25.37,SSW,202,2.9,3.8,43,0.00,,---,0.04,VWS V14.01,2013-01-13 04:58:00,
2013-01-12 23:00:00,30.7,10.9,25.37,SSW,202,2.7,2.7,43,0.00,,---,0.04,VWS V14.01,2013-01-13 05:00:00,
2013-01-12 23:03:00,30.9,10.5,25.37,SSW,202,2.7,2.7,42,0.00,,---,0.04,VWS V14.01,2013-01-13 05:03:00,
2013-01-12 23:08:00,30.9,10.5,25.37,SW,225,2.0,2.2,42,0.00,,---,0.04,VWS V14.01,2013-01-13 05:08:00,
2013-01-12 23:13:00,30.2,9.9,25.37,WSW,248,0.0,0.0,42,0.00,,---,0.04,VWS V14.01,2013-01-13 05:13:00,
2013-01-12 23:18:00,30.0,9.7,25.37,WSW,248,0.0,0.0,42,0.00,,---,0.04,VWS V14.01,2013-01-13 05:18:00,
2013-01-12 23:23:00,30.0,9.7,25.39,ESE,112,2.9,2.9,42,0.00,,---,0.04,VWS V14.01,2013-01-13 05:23:00,
2013-01-12 23:28:00,29.3,10.6,25.39,SE,135,3.6,3.8,45,0.00,,---,0.04,VWS V14.01,2013-01-13 05:28:00,
2013-01-12 23:33:00,29.3,10.1,25.39,SSE,158,0.0,0.0,44,0.00,,---,0.04,VWS V14.01,2013-01-13 05:33:00,
2013-01-12 23:38:00,30.0,10.8,25.42,South,180,1.3,1.3,44,0.00,,---,0.04,VWS V14.01,2013-01-13 05:38:00,
2013-01-12 23:43:00,30.2,10.4,25.42,South,180,2.0,2.0,43,0.00,,---,0.04,VWS V14.01,2013-01-13 05:43:00,
2013-01-12 23:48:00,30.2,10.4,25.42,South,180,0.0,0.0,43,0.00,,---,0.04,VWS V14.01,2013-01-13 05:48:00,
2013-01-12 23:53:00,30.2,10.4,25.42,South,180,0.0,0.0,43,0.00,,---,0.04,VWS V14.01,2013-01-13 05:53:00,
2013-01-12 23:58:00,29.5,10.3,25.42,ESE,112,4.0,4.3,44,0.00,,---,0.00,VWS V14.01,2013-01-13 05:58:00,